sensor_id;sensor_type;location;lat;lon;timestamp;P1;durP1;ratioP1;P2;durP2;ratioP2
48627;SDS011;34424;52.234;6.500;2023-05-23T00:01:26;15.5;;;10.3;;
48627;SDS011;34424;52.234;6.500;2023-05-23T00:06:26;15.2;;;10.3;;
48627;SDS011;34424;52.234;6.500;2023-05-23T00:11:27;16.3;;;11.3;;
48627;SDS011;34424;52.234;6.500;2023-05-23T00:16:27;17.6;;;11.6;;
48627;SDS011;34424;52.234;6.500;2023-05-23T00:21:26;19.7;;;11.3;;
48627;SDS011;34424;52.234;6.500;2023-05-23T00:26:26;18.8;;;12;;
48627;SDS011;34424;52.234;6.500;2023-05-23T00:31:26;20.3;;;13.5;;
48627;SDS011;34424;52.234;6.500;2023-05-23T00:36:26;19.6;;;13;;
48627;SDS011;34424;52.234;6.500;2023-05-23T00:41:26;20.3;;;14.7;;
48627;SDS011;34424;52.234;6.500;2023-05-23T00:46:26;23;;;14.4;;
48627;SDS011;34424;52.234;6.500;2023-05-23T00:51:26;20.1;;;13.2;;
48627;SDS011;34424;52.234;6.500;2023-05-23T00:56:26;19.8;;;12.7;;
48627;SDS011;34424;52.234;6.500;2023-05-23T01:01:26;21;;;12.1;;
48627;SDS011;34424;52.234;6.500;2023-05-23T01:06:26;17.5;;;12.4;;
48627;SDS011;34424;52.234;6.500;2023-05-23T01:11:28;20.6;;;12.7;;
48627;SDS011;34424;52.234;6.500;2023-05-23T01:16:28;20.2;;;12;;
48627;SDS011;34424;52.234;6.500;2023-05-23T01:21:26;20.8;;;11.8;;
48627;SDS011;34424;52.234;6.500;2023-05-23T01:26:30;20.8;;;11.4;;
48627;SDS011;34424;52.234;6.500;2023-05-23T01:31:26;13.9;;;8.9;;
48627;SDS011;34424;52.234;6.500;2023-05-23T01:36:26;15.5;;;9.7;;
48627;SDS011;34424;52.234;6.500;2023-05-23T01:41:26;15.7;;;10.3;;
48627;SDS011;34424;52.234;6.500;2023-05-23T01:46:26;19;;;10.8;;
48627;SDS011;34424;52.234;6.500;2023-05-23T01:51:26;19.5;;;11.2;;
48627;SDS011;34424;52.234;6.500;2023-05-23T01:56:26;20.2;;;12.2;;
48627;SDS011;34424;52.234;6.500;2023-05-23T02:01:26;22.2;;;13.7;;
48627;SDS011;34424;52.234;6.500;2023-05-23T02:06:26;29;;;15.4;;
48627;SDS011;34424;52.234;6.500;2023-05-23T02:11:25;25.8;;;15.5;;
48627;SDS011;34424;52.234;6.500;2023-05-23T02:16:25;32.2;;;16.8;;
48627;SDS011;34424;52.234;6.500;2023-05-23T02:21:25;33.5;;;18.8;;
48627;SDS011;34424;52.234;6.500;2023-05-23T02:26:25;28.8;;;18.2;;
48627;SDS011;34424;52.234;6.500;2023-05-23T02:31:25;31.2;;;18.3;;
48627;SDS011;34424;52.234;6.500;2023-05-23T02:36:25;33.4;;;18;;
48627;SDS011;34424;52.234;6.500;2023-05-23T02:41:25;25.9;;;16.3;;
48627;SDS011;34424;52.234;6.500;2023-05-23T02:46:25;27.7;;;15.5;;
48627;SDS011;34424;52.234;6.500;2023-05-23T02:51:25;28.4;;;15.8;;
48627;SDS011;34424;52.234;6.500;2023-05-23T02:56:25;27.9;;;15.3;;
48627;SDS011;34424;52.234;6.500;2023-05-23T03:01:25;23.8;;;15.2;;
48627;SDS011;34424;52.234;6.500;2023-05-23T03:06:25;34.3;;;15.5;;
48627;SDS011;34424;52.234;6.500;2023-05-23T03:11:25;25;;;15.7;;
48627;SDS011;34424;52.234;6.500;2023-05-23T03:16:25;23.5;;;14.4;;
48627;SDS011;34424;52.234;6.500;2023-05-23T03:21:24;25.9;;;14.8;;
48627;SDS011;34424;52.234;6.500;2023-05-23T03:26:25;27.2;;;14.7;;
48627;SDS011;34424;52.234;6.500;2023-05-23T03:31:24;23.8;;;14;;
48627;SDS011;34424;52.234;6.500;2023-05-23T03:36:24;24.1;;;14.1;;
48627;SDS011;34424;52.234;6.500;2023-05-23T03:41:24;29.1;;;14.4;;
48627;SDS011;34424;52.234;6.500;2023-05-23T03:46:24;23.7;;;12.5;;
48627;SDS011;34424;52.234;6.500;2023-05-23T03:51:24;20.2;;;12;;
48627;SDS011;34424;52.234;6.500;2023-05-23T03:56:24;24.3;;;12.4;;
48627;SDS011;34424;52.234;6.500;2023-05-23T04:01:24;19.3;;;10.9;;
48627;SDS011;34424;52.234;6.500;2023-05-23T04:06:24;23.2;;;11.9;;
48627;SDS011;34424;52.234;6.500;2023-05-23T04:11:24;18.3;;;11.6;;
48627;SDS011;34424;52.234;6.500;2023-05-23T04:16:24;22.5;;;12;;
48627;SDS011;34424;52.234;6.500;2023-05-23T04:21:24;22.5;;;12;;
48627;SDS011;34424;52.234;6.500;2023-05-23T04:26:23;24.4;;;12.1;;
48627;SDS011;34424;52.234;6.500;2023-05-23T04:31:23;20.5;;;10.6;;
48627;SDS011;34424;52.234;6.500;2023-05-23T04:36:23;18.5;;;10.4;;
48627;SDS011;34424;52.234;6.500;2023-05-23T04:41:23;19.6;;;9.5;;
48627;SDS011;34424;52.234;6.500;2023-05-23T04:46:23;22.1;;;10.4;;
48627;SDS011;34424;52.234;6.500;2023-05-23T04:51:23;13.8;;;9.7;;
48627;SDS011;34424;52.234;6.500;2023-05-23T04:56:23;13.8;;;8.2;;
48627;SDS011;34424;52.234;6.500;2023-05-23T05:01:23;18.6;;;9.5;;
48627;SDS011;34424;52.234;6.500;2023-05-23T05:06:23;19;;;9.7;;
48627;SDS011;34424;52.234;6.500;2023-05-23T05:11:23;22.4;;;9.5;;
48627;SDS011;34424;52.234;6.500;2023-05-23T05:16:23;15.4;;;8.7;;
48627;SDS011;34424;52.234;6.500;2023-05-23T05:21:23;20.1;;;9.6;;
48627;SDS011;34424;52.234;6.500;2023-05-23T05:26:23;20.2;;;9.2;;
48627;SDS011;34424;52.234;6.500;2023-05-23T05:31:23;17;;;8.9;;
48627;SDS011;34424;52.234;6.500;2023-05-23T05:36:22;15.6;;;8.2;;
48627;SDS011;34424;52.234;6.500;2023-05-23T05:41:22;19.6;;;9.6;;
48627;SDS011;34424;52.234;6.500;2023-05-23T05:46:22;19.3;;;8.3;;
48627;SDS011;34424;52.234;6.500;2023-05-23T05:51:22;18.6;;;9.5;;
48627;SDS011;34424;52.234;6.500;2023-05-23T05:56:22;20.8;;;9.1;;
48627;SDS011;34424;52.234;6.500;2023-05-23T06:01:22;15.4;;;7.8;;
48627;SDS011;34424;52.234;6.500;2023-05-23T06:06:22;16.2;;;7.8;;
48627;SDS011;34424;52.234;6.500;2023-05-23T06:11:22;17.1;;;7.2;;
48627;SDS011;34424;52.234;6.500;2023-05-23T06:16:22;14.2;;;7.2;;
48627;SDS011;34424;52.234;6.500;2023-05-23T06:21:22;13.5;;;6.9;;
48627;SDS011;34424;52.234;6.500;2023-05-23T06:26:22;14.2;;;7.1;;
48627;SDS011;34424;52.234;6.500;2023-05-23T06:31:22;11;;;6.4;;
48627;SDS011;34424;52.234;6.500;2023-05-23T06:36:22;13.5;;;6.4;;
48627;SDS011;34424;52.234;6.500;2023-05-23T06:41:21;12.2;;;6.3;;
48627;SDS011;34424;52.234;6.500;2023-05-23T06:46:21;13.9;;;6.2;;
48627;SDS011;34424;52.234;6.500;2023-05-23T06:51:21;14.4;;;6.4;;
48627;SDS011;34424;52.234;6.500;2023-05-23T06:56:21;14.7;;;6.7;;
48627;SDS011;34424;52.234;6.500;2023-05-23T07:01:21;13.3;;;6.2;;
48627;SDS011;34424;52.234;6.500;2023-05-23T07:06:21;14.3;;;6.3;;
48627;SDS011;34424;52.234;6.500;2023-05-23T07:11:21;18.4;;;6.2;;
48627;SDS011;34424;52.234;6.500;2023-05-23T07:16:21;15.8;;;6.5;;
48627;SDS011;34424;52.234;6.500;2023-05-23T07:21:21;13.3;;;6.6;;
48627;SDS011;34424;52.234;6.500;2023-05-23T07:26:21;14;;;6.3;;
48627;SDS011;34424;52.234;6.500;2023-05-23T07:31:21;19.1;;;6.6;;
48627;SDS011;34424;52.234;6.500;2023-05-23T07:36:20;14.1;;;6.4;;
48627;SDS011;34424;52.234;6.500;2023-05-23T07:41:20;13.7;;;6.3;;
48627;SDS011;34424;52.234;6.500;2023-05-23T07:46:20;11.8;;;5.7;;
48627;SDS011;34424;52.234;6.500;2023-05-23T07:51:20;9.6;;;4.6;;
48627;SDS011;34424;52.234;6.500;2023-05-23T07:56:20;10.3;;;4.7;;
48627;SDS011;34424;52.234;6.500;2023-05-23T08:01:20;14.4;;;5.2;;
48627;SDS011;34424;52.234;6.500;2023-05-23T08:06:20;14.3;;;5;;
48627;SDS011;34424;52.234;6.500;2023-05-23T08:11:20;17;;;5.4;;
48627;SDS011;34424;52.234;6.500;2023-05-23T08:16:20;11.3;;;5.5;;
48627;SDS011;34424;52.234;6.500;2023-05-23T08:21:20;9.8;;;4.9;;
48627;SDS011;34424;52.234;6.500;2023-05-23T08:26:20;10.3;;;5.2;;
48627;SDS011;34424;52.234;6.500;2023-05-23T08:31:20;10.2;;;4.3;;
48627;SDS011;34424;52.234;6.500;2023-05-23T08:36:20;8.2;;;4;;
48627;SDS011;34424;52.234;6.500;2023-05-23T08:41:21;10.4;;;4.7;;
48627;SDS011;34424;52.234;6.500;2023-05-23T08:46:20;10.8;;;4.5;;
48627;SDS011;34424;52.234;6.500;2023-05-23T08:51:20;12.3;;;4.5;;
48627;SDS011;34424;52.234;6.500;2023-05-23T08:56:20;9.2;;;3.5;;
48627;SDS011;34424;52.234;6.500;2023-05-23T09:01:20;18.1;;;3.7;;
48627;SDS011;34424;52.234;6.500;2023-05-23T09:06:20;8;;;3;;
48627;SDS011;34424;52.234;6.500;2023-05-23T09:11:20;8.7;;;3.3;;
48627;SDS011;34424;52.234;6.500;2023-05-23T09:16:20;12;;;4;;
48627;SDS011;34424;52.234;6.500;2023-05-23T09:21:20;10.6;;;3.8;;
48627;SDS011;34424;52.234;6.500;2023-05-23T09:26:20;12.3;;;3.9;;
48627;SDS011;34424;52.234;6.500;2023-05-23T09:31:20;10.4;;;3.7;;
48627;SDS011;34424;52.234;6.500;2023-05-23T09:36:20;12.2;;;3.4;;
48627;SDS011;34424;52.234;6.500;2023-05-23T09:41:21;11.5;;;3.4;;
48627;SDS011;34424;52.234;6.500;2023-05-23T09:46:20;8.8;;;3.4;;
48627;SDS011;34424;52.234;6.500;2023-05-23T09:51:21;12.6;;;3.6;;
48627;SDS011;34424;52.234;6.500;2023-05-23T09:56:20;11.5;;;3.7;;
48627;SDS011;34424;52.234;6.500;2023-05-23T10:01:20;10;;;3.5;;
48627;SDS011;34424;52.234;6.500;2023-05-23T10:06:22;11.8;;;4;;
48627;SDS011;34424;52.234;6.500;2023-05-23T10:16:22;8.5;;;3.2;;
48627;SDS011;34424;52.234;6.500;2023-05-23T10:21:23;8.1;;;3.1;;
48627;SDS011;34424;52.234;6.500;2023-05-23T10:26:22;9.6;;;3.5;;
48627;SDS011;34424;52.234;6.500;2023-05-23T10:31:22;8.8;;;3.5;;
48627;SDS011;34424;52.234;6.500;2023-05-23T10:36:23;5.7;;;3.3;;
48627;SDS011;34424;52.234;6.500;2023-05-23T10:41:24;9.1;;;4.1;;
48627;SDS011;34424;52.234;6.500;2023-05-23T10:46:23;8.2;;;3.2;;
48627;SDS011;34424;52.234;6.500;2023-05-23T10:51:23;9.7;;;3.3;;
48627;SDS011;34424;52.234;6.500;2023-05-23T10:56:23;9.7;;;3.8;;
48627;SDS011;34424;52.234;6.500;2023-05-23T11:01:23;8.5;;;4.5;;
48627;SDS011;34424;52.234;6.500;2023-05-23T11:06:36;10.2;;;3.8;;
48627;SDS011;34424;52.234;6.500;2023-05-23T11:11:23;8.9;;;3.5;;
48627;SDS011;34424;52.234;6.500;2023-05-23T11:16:27;6;;;3.4;;
48627;SDS011;34424;52.234;6.500;2023-05-23T11:21:24;7.8;;;3.3;;
48627;SDS011;34424;52.234;6.500;2023-05-23T11:26:33;9.5;;;2.9;;
48627;SDS011;34424;52.234;6.500;2023-05-23T11:31:24;10.8;;;3.6;;
48627;SDS011;34424;52.234;6.500;2023-05-23T11:36:25;6.8;;;3.2;;
48627;SDS011;34424;52.234;6.500;2023-05-23T11:41:25;8.4;;;3.1;;
48627;SDS011;34424;52.234;6.500;2023-05-23T11:46:25;6.5;;;3;;
48627;SDS011;34424;52.234;6.500;2023-05-23T11:51:25;8.8;;;3.1;;
48627;SDS011;34424;52.234;6.500;2023-05-23T11:56:25;8.1;;;3.2;;
48627;SDS011;34424;52.234;6.500;2023-05-23T12:01:27;9.8;;;3.5;;
48627;SDS011;34424;52.234;6.500;2023-05-23T12:06:26;5.3;;;2.6;;
48627;SDS011;34424;52.234;6.500;2023-05-23T12:11:26;6.3;;;2.6;;
48627;SDS011;34424;52.234;6.500;2023-05-23T12:16:26;8.6;;;3.1;;
48627;SDS011;34424;52.234;6.500;2023-05-23T12:21:39;6.3;;;2.9;;
48627;SDS011;34424;52.234;6.500;2023-05-23T12:26:26;8.5;;;2.7;;
48627;SDS011;34424;52.234;6.500;2023-05-23T12:31:27;8;;;3.1;;
48627;SDS011;34424;52.234;6.500;2023-05-23T12:36:28;8.4;;;3.1;;
48627;SDS011;34424;52.234;6.500;2023-05-23T12:41:27;6;;;2.5;;
48627;SDS011;34424;52.234;6.500;2023-05-23T12:46:27;9.1;;;2.9;;
48627;SDS011;34424;52.234;6.500;2023-05-23T12:51:27;7.8;;;2.8;;
48627;SDS011;34424;52.234;6.500;2023-05-23T12:56:28;8.6;;;2.8;;
48627;SDS011;34424;52.234;6.500;2023-05-23T13:01:28;9.7;;;3.5;;
48627;SDS011;34424;52.234;6.500;2023-05-23T13:06:28;7.6;;;3.1;;
48627;SDS011;34424;52.234;6.500;2023-05-23T13:11:28;9.5;;;3;;
48627;SDS011;34424;52.234;6.500;2023-05-23T13:16:28;7.2;;;2.8;;
48627;SDS011;34424;52.234;6.500;2023-05-23T13:21:28;10.5;;;3.5;;
48627;SDS011;34424;52.234;6.500;2023-05-23T13:26:28;9.3;;;3;;
48627;SDS011;34424;52.234;6.500;2023-05-23T13:31:28;8.8;;;3.1;;
48627;SDS011;34424;52.234;6.500;2023-05-23T13:36:29;8.3;;;3.3;;
48627;SDS011;34424;52.234;6.500;2023-05-23T13:41:29;8.9;;;3;;
48627;SDS011;34424;52.234;6.500;2023-05-23T13:46:29;7.3;;;3.3;;
48627;SDS011;34424;52.234;6.500;2023-05-23T13:51:29;6.4;;;3;;
48627;SDS011;34424;52.234;6.500;2023-05-23T13:56:29;9;;;3.5;;
48627;SDS011;34424;52.234;6.500;2023-05-23T14:01:29;9.6;;;2.8;;
48627;SDS011;34424;52.234;6.500;2023-05-23T14:06:29;5.8;;;3;;
48627;SDS011;34424;52.234;6.500;2023-05-23T14:11:29;7.6;;;3;;
48627;SDS011;34424;52.234;6.500;2023-05-23T14:16:30;10.3;;;3.4;;
48627;SDS011;34424;52.234;6.500;2023-05-23T14:21:29;8;;;2.8;;
48627;SDS011;34424;52.234;6.500;2023-05-23T14:26:30;7.5;;;3.4;;
48627;SDS011;34424;52.234;6.500;2023-05-23T14:31:30;9.8;;;3;;
48627;SDS011;34424;52.234;6.500;2023-05-23T14:36:30;7.4;;;2.9;;
48627;SDS011;34424;52.234;6.500;2023-05-23T14:41:30;10.5;;;3.4;;
48627;SDS011;34424;52.234;6.500;2023-05-23T14:46:30;9.3;;;3;;
48627;SDS011;34424;52.234;6.500;2023-05-23T14:51:30;7.1;;;2.7;;
48627;SDS011;34424;52.234;6.500;2023-05-23T14:56:30;7.1;;;2.9;;
48627;SDS011;34424;52.234;6.500;2023-05-23T15:01:30;6.7;;;2.6;;
48627;SDS011;34424;52.234;6.500;2023-05-23T15:06:31;8.8;;;3.1;;
48627;SDS011;34424;52.234;6.500;2023-05-23T15:11:31;6.2;;;2.6;;
48627;SDS011;34424;52.234;6.500;2023-05-23T15:16:31;8.7;;;3.3;;
48627;SDS011;34424;52.234;6.500;2023-05-23T15:21:31;6.7;;;2.6;;
48627;SDS011;34424;52.234;6.500;2023-05-23T15:26:31;6;;;3.1;;
48627;SDS011;34424;52.234;6.500;2023-05-23T15:31:31;8.4;;;3.2;;
48627;SDS011;34424;52.234;6.500;2023-05-23T15:36:31;9.2;;;3.1;;
48627;SDS011;34424;52.234;6.500;2023-05-23T15:41:32;8.5;;;2.9;;
48627;SDS011;34424;52.234;6.500;2023-05-23T15:46:32;10.1;;;3.1;;
48627;SDS011;34424;52.234;6.500;2023-05-23T15:51:32;7;;;2.8;;
48627;SDS011;34424;52.234;6.500;2023-05-23T15:56:32;7.2;;;2.8;;
48627;SDS011;34424;52.234;6.500;2023-05-23T16:01:33;6.4;;;2.5;;
48627;SDS011;34424;52.234;6.500;2023-05-23T16:06:33;6.5;;;2.1;;
48627;SDS011;34424;52.234;6.500;2023-05-23T16:11:33;6.8;;;2.6;;
48627;SDS011;34424;52.234;6.500;2023-05-23T16:16:33;7.1;;;2.5;;
48627;SDS011;34424;52.234;6.500;2023-05-23T16:21:33;6.4;;;2.3;;
48627;SDS011;34424;52.234;6.500;2023-05-23T16:26:33;5.8;;;2.3;;
48627;SDS011;34424;52.234;6.500;2023-05-23T16:31:33;7.7;;;2.8;;
48627;SDS011;34424;52.234;6.500;2023-05-23T16:36:34;7.2;;;2.8;;
48627;SDS011;34424;52.234;6.500;2023-05-23T16:41:34;7;;;2.6;;
48627;SDS011;34424;52.234;6.500;2023-05-23T16:46:34;9.2;;;2.6;;
48627;SDS011;34424;52.234;6.500;2023-05-23T16:51:34;7.3;;;2.9;;
48627;SDS011;34424;52.234;6.500;2023-05-23T16:56:34;7.8;;;3;;
48627;SDS011;34424;52.234;6.500;2023-05-23T17:01:34;6.8;;;2.9;;
48627;SDS011;34424;52.234;6.500;2023-05-23T17:06:34;6.9;;;2.7;;
48627;SDS011;34424;52.234;6.500;2023-05-23T17:11:34;7.2;;;3.3;;
48627;SDS011;34424;52.234;6.500;2023-05-23T17:16:34;6.3;;;2.8;;
48627;SDS011;34424;52.234;6.500;2023-05-23T17:21:34;9.5;;;3.1;;
48627;SDS011;34424;52.234;6.500;2023-05-23T17:26:34;8.8;;;2.8;;
48627;SDS011;34424;52.234;6.500;2023-05-23T17:31:34;8;;;2.9;;
48627;SDS011;34424;52.234;6.500;2023-05-23T17:36:34;7.8;;;2.7;;
48627;SDS011;34424;52.234;6.500;2023-05-23T17:41:34;9;;;2.8;;
48627;SDS011;34424;52.234;6.500;2023-05-23T17:46:34;7.9;;;3;;
48627;SDS011;34424;52.234;6.500;2023-05-23T17:51:35;10.6;;;2.6;;
48627;SDS011;34424;52.234;6.500;2023-05-23T17:56:34;9.8;;;2.8;;
48627;SDS011;34424;52.234;6.500;2023-05-23T18:01:34;8;;;2.7;;
48627;SDS011;34424;52.234;6.500;2023-05-23T18:06:34;8.3;;;2.9;;
48627;SDS011;34424;52.234;6.500;2023-05-23T18:11:34;6.9;;;2.5;;
48627;SDS011;34424;52.234;6.500;2023-05-23T18:16:34;9.7;;;2.8;;
48627;SDS011;34424;52.234;6.500;2023-05-23T18:21:34;8.7;;;3;;
48627;SDS011;34424;52.234;6.500;2023-05-23T18:26:34;8.3;;;2.6;;
48627;SDS011;34424;52.234;6.500;2023-05-23T18:31:34;9.7;;;2.9;;
48627;SDS011;34424;52.234;6.500;2023-05-23T18:36:34;14.1;;;3.3;;
48627;SDS011;34424;52.234;6.500;2023-05-23T18:41:34;10;;;2.9;;
48627;SDS011;34424;52.234;6.500;2023-05-23T18:46:33;11.5;;;3.3;;
48627;SDS011;34424;52.234;6.500;2023-05-23T18:51:33;11.8;;;3;;
48627;SDS011;34424;52.234;6.500;2023-05-23T18:56:34;8.9;;;3.1;;
48627;SDS011;34424;52.234;6.500;2023-05-23T19:01:33;8.3;;;2.7;;
48627;SDS011;34424;52.234;6.500;2023-05-23T19:06:33;7.7;;;3;;
48627;SDS011;34424;52.234;6.500;2023-05-23T19:11:33;11.1;;;3.2;;
48627;SDS011;34424;52.234;6.500;2023-05-23T19:16:32;7.8;;;3.1;;
48627;SDS011;34424;52.234;6.500;2023-05-23T19:21:32;9.7;;;3.6;;
48627;SDS011;34424;52.234;6.500;2023-05-23T19:26:32;9.4;;;2.9;;
48627;SDS011;34424;52.234;6.500;2023-05-23T19:31:32;8.8;;;2.9;;
48627;SDS011;34424;52.234;6.500;2023-05-23T19:36:32;9.4;;;3.1;;
48627;SDS011;34424;52.234;6.500;2023-05-23T19:41:31;11.1;;;3.7;;
48627;SDS011;34424;52.234;6.500;2023-05-23T19:46:31;9.5;;;3.2;;
48627;SDS011;34424;52.234;6.500;2023-05-23T19:51:31;14.1;;;3.4;;
48627;SDS011;34424;52.234;6.500;2023-05-23T19:56:31;9.1;;;3.4;;
48627;SDS011;34424;52.234;6.500;2023-05-23T20:01:31;10.5;;;3.3;;
48627;SDS011;34424;52.234;6.500;2023-05-23T20:06:30;10.4;;;3;;
48627;SDS011;34424;52.234;6.500;2023-05-23T20:11:30;12.1;;;3.2;;
48627;SDS011;34424;52.234;6.500;2023-05-23T20:16:30;12.2;;;3.5;;
48627;SDS011;34424;52.234;6.500;2023-05-23T20:21:30;10.3;;;3.5;;
48627;SDS011;34424;52.234;6.500;2023-05-23T20:26:29;9.4;;;3.2;;
48627;SDS011;34424;52.234;6.500;2023-05-23T20:31:29;11.2;;;3.5;;
48627;SDS011;34424;52.234;6.500;2023-05-23T20:36:29;8.9;;;3.1;;
48627;SDS011;34424;52.234;6.500;2023-05-23T20:41:28;10.8;;;4.1;;
48627;SDS011;34424;52.234;6.500;2023-05-23T20:46:28;10.5;;;3.3;;
48627;SDS011;34424;52.234;6.500;2023-05-23T20:51:28;10.2;;;3.3;;
48627;SDS011;34424;52.234;6.500;2023-05-23T20:56:27;10.8;;;3.4;;
48627;SDS011;34424;52.234;6.500;2023-05-23T21:01:27;12.2;;;3.8;;
48627;SDS011;34424;52.234;6.500;2023-05-23T21:06:27;10.8;;;4.1;;
48627;SDS011;34424;52.234;6.500;2023-05-23T21:11:27;10.2;;;4;;
48627;SDS011;34424;52.234;6.500;2023-05-23T21:16:26;10.9;;;4.5;;
48627;SDS011;34424;52.234;6.500;2023-05-23T21:21:26;13;;;4.2;;
48627;SDS011;34424;52.234;6.500;2023-05-23T21:26:26;9.1;;;4.1;;
48627;SDS011;34424;52.234;6.500;2023-05-23T21:31:25;14.5;;;4.3;;
48627;SDS011;34424;52.234;6.500;2023-05-23T21:36:25;10.9;;;4.4;;
48627;SDS011;34424;52.234;6.500;2023-05-23T21:41:25;15;;;4.5;;
48627;SDS011;34424;52.234;6.500;2023-05-23T21:46:24;14.4;;;4.6;;
48627;SDS011;34424;52.234;6.500;2023-05-23T21:51:24;16.1;;;4.6;;
48627;SDS011;34424;52.234;6.500;2023-05-23T21:56:24;9.4;;;4.1;;
48627;SDS011;34424;52.234;6.500;2023-05-23T22:01:23;16.7;;;4.6;;
48627;SDS011;34424;52.234;6.500;2023-05-23T22:06:23;12.4;;;4.1;;
48627;SDS011;34424;52.234;6.500;2023-05-23T22:11:23;10.5;;;4.2;;
48627;SDS011;34424;52.234;6.500;2023-05-23T22:16:22;14.3;;;4.6;;
48627;SDS011;34424;52.234;6.500;2023-05-23T22:21:22;11.1;;;4.2;;
48627;SDS011;34424;52.234;6.500;2023-05-23T22:26:22;13.5;;;4.7;;
48627;SDS011;34424;52.234;6.500;2023-05-23T22:31:21;14;;;5.4;;
48627;SDS011;34424;52.234;6.500;2023-05-23T22:36:21;13.1;;;4.7;;
48627;SDS011;34424;52.234;6.500;2023-05-23T22:41:20;14.6;;;4.7;;
48627;SDS011;34424;52.234;6.500;2023-05-23T22:46:20;14;;;5;;
48627;SDS011;34424;52.234;6.500;2023-05-23T22:51:20;13.8;;;5.3;;
48627;SDS011;34424;52.234;6.500;2023-05-23T22:56:19;11.1;;;4.8;;
48627;SDS011;34424;52.234;6.500;2023-05-23T23:01:19;12.7;;;5.3;;
48627;SDS011;34424;52.234;6.500;2023-05-23T23:06:19;15.8;;;5.5;;
48627;SDS011;34424;52.234;6.500;2023-05-23T23:11:18;14.6;;;5.6;;
48627;SDS011;34424;52.234;6.500;2023-05-23T23:16:18;14.9;;;5.7;;
48627;SDS011;34424;52.234;6.500;2023-05-23T23:21:18;16.6;;;6.2;;
48627;SDS011;34424;52.234;6.500;2023-05-23T23:26:17;15.8;;;5.2;;
48627;SDS011;34424;52.234;6.500;2023-05-23T23:31:17;14.9;;;5.6;;
48627;SDS011;34424;52.234;6.500;2023-05-23T23:36:17;16.1;;;6;;
48627;SDS011;34424;52.234;6.500;2023-05-23T23:41:16;15;;;5.9;;
48627;SDS011;34424;52.234;6.500;2023-05-23T23:46:16;17.9;;;6.5;;
48627;SDS011;34424;52.234;6.500;2023-05-23T23:51:15;17.1;;;6.7;;
48627;SDS011;34424;52.234;6.500;2023-05-23T23:56:15;16.7;;;6.4;;
